sensor_id;sensor_type;location;lat;lon;timestamp;P1;durP1;ratioP1;P2;durP2;ratioP2
60665;SDS011;59128;44.642;21.188;2023-04-25T00:01:31;24.63;;;18.73;;
60665;SDS011;59128;44.642;21.188;2023-04-25T00:04:01;20.92;;;15.60;;
60665;SDS011;59128;44.642;21.188;2023-04-25T00:06:27;16.63;;;14.93;;
60665;SDS011;59128;44.642;21.188;2023-04-25T00:08:55;17.55;;;14.50;;
60665;SDS011;59128;44.642;21.188;2023-04-25T00:11:21;17.67;;;13.77;;
60665;SDS011;59128;44.642;21.188;2023-04-25T00:13:47;15.60;;;13.85;;
60665;SDS011;59128;44.642;21.188;2023-04-25T00:16:14;17.25;;;13.65;;
60665;SDS011;59128;44.642;21.188;2023-04-25T00:18:41;16.95;;;14.70;;
60665;SDS011;59128;44.642;21.188;2023-04-25T00:21:07;17.27;;;14.43;;
60665;SDS011;59128;44.642;21.188;2023-04-25T00:23:34;19.40;;;14.73;;
60665;SDS011;59128;44.642;21.188;2023-04-25T00:26:01;19.77;;;15.55;;
60665;SDS011;59128;44.642;21.188;2023-04-25T00:28:27;21.75;;;16.73;;
60665;SDS011;59128;44.642;21.188;2023-04-25T00:30:53;21.30;;;16.60;;
60665;SDS011;59128;44.642;21.188;2023-04-25T00:33:19;21.05;;;17.13;;
60665;SDS011;59128;44.642;21.188;2023-04-25T00:35:46;19.50;;;15.88;;
60665;SDS011;59128;44.642;21.188;2023-04-25T00:38:12;21.35;;;15.75;;
60665;SDS011;59128;44.642;21.188;2023-04-25T00:40:38;19.33;;;15.30;;
60665;SDS011;59128;44.642;21.188;2023-04-25T00:43:04;18.08;;;15.25;;
60665;SDS011;59128;44.642;21.188;2023-04-25T00:45:30;19.02;;;16.75;;
60665;SDS011;59128;44.642;21.188;2023-04-25T00:47:56;20.83;;;16.40;;
60665;SDS011;59128;44.642;21.188;2023-04-25T00:50:23;20.35;;;16.55;;
60665;SDS011;59128;44.642;21.188;2023-04-25T00:52:49;21.15;;;18.50;;
60665;SDS011;59128;44.642;21.188;2023-04-25T00:55:16;40.35;;;26.55;;
60665;SDS011;59128;44.642;21.188;2023-04-25T00:57:42;82.30;;;44.78;;
60665;SDS011;59128;44.642;21.188;2023-04-25T01:00:08;47.53;;;32.42;;
60665;SDS011;59128;44.642;21.188;2023-04-25T01:02:36;42.85;;;29.55;;
60665;SDS011;59128;44.642;21.188;2023-04-25T01:05:02;41.03;;;29.00;;
60665;SDS011;59128;44.642;21.188;2023-04-25T01:07:29;46.38;;;32.75;;
60665;SDS011;59128;44.642;21.188;2023-04-25T01:09:55;41.92;;;29.20;;
60665;SDS011;59128;44.642;21.188;2023-04-25T01:12:22;37.03;;;26.38;;
60665;SDS011;59128;44.642;21.188;2023-04-25T01:14:48;31.40;;;22.48;;
60665;SDS011;59128;44.642;21.188;2023-04-25T01:17:14;29.08;;;23.23;;
60665;SDS011;59128;44.642;21.188;2023-04-25T01:19:41;30.35;;;23.08;;
60665;SDS011;59128;44.642;21.188;2023-04-25T01:22:07;29.30;;;23.02;;
60665;SDS011;59128;44.642;21.188;2023-04-25T01:24:35;26.55;;;21.58;;
60665;SDS011;59128;44.642;21.188;2023-04-25T01:27:02;22.35;;;18.80;;
60665;SDS011;59128;44.642;21.188;2023-04-25T01:29:29;22.58;;;18.55;;
60665;SDS011;59128;44.642;21.188;2023-04-25T01:31:55;21.60;;;18.30;;
60665;SDS011;59128;44.642;21.188;2023-04-25T01:34:23;24.42;;;18.92;;
60665;SDS011;59128;44.642;21.188;2023-04-25T01:36:50;24.08;;;19.05;;
60665;SDS011;59128;44.642;21.188;2023-04-25T01:39:17;22.30;;;19.08;;
60665;SDS011;59128;44.642;21.188;2023-04-25T01:41:43;20.35;;;17.35;;
60665;SDS011;59128;44.642;21.188;2023-04-25T01:44:09;19.85;;;16.65;;
60665;SDS011;59128;44.642;21.188;2023-04-25T01:46:35;19.15;;;16.17;;
60665;SDS011;59128;44.642;21.188;2023-04-25T01:49:02;19.75;;;16.48;;
60665;SDS011;59128;44.642;21.188;2023-04-25T01:51:28;22.60;;;17.25;;
60665;SDS011;59128;44.642;21.188;2023-04-25T01:53:55;17.98;;;15.68;;
60665;SDS011;59128;44.642;21.188;2023-04-25T01:56:21;19.45;;;15.23;;
60665;SDS011;59128;44.642;21.188;2023-04-25T01:58:47;16.73;;;13.02;;
60665;SDS011;59128;44.642;21.188;2023-04-25T02:01:13;14.60;;;11.82;;
60665;SDS011;59128;44.642;21.188;2023-04-25T02:03:39;16.85;;;13.32;;
60665;SDS011;59128;44.642;21.188;2023-04-25T02:06:05;13.80;;;10.48;;
60665;SDS011;59128;44.642;21.188;2023-04-25T02:08:32;11.73;;;9.57;;
60665;SDS011;59128;44.642;21.188;2023-04-25T02:10:58;14.13;;;11.60;;
60665;SDS011;59128;44.642;21.188;2023-04-25T02:13:24;11.90;;;10.65;;
60665;SDS011;59128;44.642;21.188;2023-04-25T02:15:50;13.68;;;11.27;;
60665;SDS011;59128;44.642;21.188;2023-04-25T02:18:16;14.73;;;11.73;;
60665;SDS011;59128;44.642;21.188;2023-04-25T02:20:42;14.75;;;12.57;;
60665;SDS011;59128;44.642;21.188;2023-04-25T02:23:09;13.80;;;11.45;;
60665;SDS011;59128;44.642;21.188;2023-04-25T02:25:35;12.35;;;11.15;;
60665;SDS011;59128;44.642;21.188;2023-04-25T02:28:01;11.70;;;10.50;;
60665;SDS011;59128;44.642;21.188;2023-04-25T02:30:27;13.45;;;10.63;;
60665;SDS011;59128;44.642;21.188;2023-04-25T02:32:53;11.70;;;9.73;;
60665;SDS011;59128;44.642;21.188;2023-04-25T02:35:19;13.32;;;11.32;;
60665;SDS011;59128;44.642;21.188;2023-04-25T02:37:45;13.75;;;11.52;;
60665;SDS011;59128;44.642;21.188;2023-04-25T02:40:11;13.70;;;10.68;;
60665;SDS011;59128;44.642;21.188;2023-04-25T02:42:38;12.98;;;10.25;;
60665;SDS011;59128;44.642;21.188;2023-04-25T02:45:04;11.75;;;10.55;;
60665;SDS011;59128;44.642;21.188;2023-04-25T02:47:30;14.90;;;11.43;;
60665;SDS011;59128;44.642;21.188;2023-04-25T02:49:56;12.02;;;9.65;;
60665;SDS011;59128;44.642;21.188;2023-04-25T02:52:22;14.57;;;11.60;;
60665;SDS011;59128;44.642;21.188;2023-04-25T02:54:48;14.82;;;10.48;;
60665;SDS011;59128;44.642;21.188;2023-04-25T02:57:14;11.00;;;9.80;;
60665;SDS011;59128;44.642;21.188;2023-04-25T02:59:40;11.95;;;10.15;;
60665;SDS011;59128;44.642;21.188;2023-04-25T03:02:06;12.05;;;10.50;;
60665;SDS011;59128;44.642;21.188;2023-04-25T03:04:32;13.88;;;11.88;;
60665;SDS011;59128;44.642;21.188;2023-04-25T03:06:58;13.38;;;11.98;;
60665;SDS011;59128;44.642;21.188;2023-04-25T03:09:24;15.88;;;12.80;;
60665;SDS011;59128;44.642;21.188;2023-04-25T03:11:51;14.57;;;11.75;;
60665;SDS011;59128;44.642;21.188;2023-04-25T03:14:17;13.40;;;11.98;;
60665;SDS011;59128;44.642;21.188;2023-04-25T03:16:43;17.73;;;12.32;;
60665;SDS011;59128;44.642;21.188;2023-04-25T03:19:09;15.80;;;12.13;;
60665;SDS011;59128;44.642;21.188;2023-04-25T03:21:35;13.52;;;12.00;;
60665;SDS011;59128;44.642;21.188;2023-04-25T03:24:02;15.48;;;13.05;;
60665;SDS011;59128;44.642;21.188;2023-04-25T03:26:29;17.08;;;14.50;;
60665;SDS011;59128;44.642;21.188;2023-04-25T03:28:55;18.42;;;14.20;;
60665;SDS011;59128;44.642;21.188;2023-04-25T03:31:21;18.58;;;14.73;;
60665;SDS011;59128;44.642;21.188;2023-04-25T03:33:47;17.25;;;14.80;;
60665;SDS011;59128;44.642;21.188;2023-04-25T03:36:13;16.83;;;14.38;;
60665;SDS011;59128;44.642;21.188;2023-04-25T03:38:39;19.67;;;14.93;;
60665;SDS011;59128;44.642;21.188;2023-04-25T03:41:08;18.40;;;14.27;;
60665;SDS011;59128;44.642;21.188;2023-04-25T03:43:34;17.92;;;14.63;;
60665;SDS011;59128;44.642;21.188;2023-04-25T03:46:01;18.95;;;15.05;;
60665;SDS011;59128;44.642;21.188;2023-04-25T03:48:27;16.90;;;14.32;;
60665;SDS011;59128;44.642;21.188;2023-04-25T03:50:53;22.02;;;16.80;;
60665;SDS011;59128;44.642;21.188;2023-04-25T03:53:19;20.17;;;15.98;;
60665;SDS011;59128;44.642;21.188;2023-04-25T03:55:45;19.50;;;15.98;;
60665;SDS011;59128;44.642;21.188;2023-04-25T03:58:11;20.13;;;17.10;;
60665;SDS011;59128;44.642;21.188;2023-04-25T04:00:37;20.15;;;17.17;;
60665;SDS011;59128;44.642;21.188;2023-04-25T04:03:03;24.00;;;18.88;;
60665;SDS011;59128;44.642;21.188;2023-04-25T04:05:29;21.75;;;17.80;;
60665;SDS011;59128;44.642;21.188;2023-04-25T04:07:56;25.88;;;18.83;;
60665;SDS011;59128;44.642;21.188;2023-04-25T04:10:22;23.05;;;18.13;;
60665;SDS011;59128;44.642;21.188;2023-04-25T04:12:48;22.63;;;16.83;;
60665;SDS011;59128;44.642;21.188;2023-04-25T04:15:14;21.40;;;17.10;;
60665;SDS011;59128;44.642;21.188;2023-04-25T04:17:40;27.00;;;17.92;;
60665;SDS011;59128;44.642;21.188;2023-04-25T04:20:06;18.63;;;15.35;;
60665;SDS011;59128;44.642;21.188;2023-04-25T04:22:33;17.08;;;14.52;;
60665;SDS011;59128;44.642;21.188;2023-04-25T04:25:00;18.52;;;14.80;;
60665;SDS011;59128;44.642;21.188;2023-04-25T04:27:26;17.98;;;15.02;;
60665;SDS011;59128;44.642;21.188;2023-04-25T04:29:53;18.70;;;14.68;;
60665;SDS011;59128;44.642;21.188;2023-04-25T04:32:19;17.65;;;14.50;;
60665;SDS011;59128;44.642;21.188;2023-04-25T04:34:45;17.02;;;13.88;;
60665;SDS011;59128;44.642;21.188;2023-04-25T04:37:12;13.82;;;11.55;;
60665;SDS011;59128;44.642;21.188;2023-04-25T04:39:38;16.00;;;13.10;;
60665;SDS011;59128;44.642;21.188;2023-04-25T04:42:04;15.00;;;12.45;;
60665;SDS011;59128;44.642;21.188;2023-04-25T04:44:31;17.42;;;12.45;;
60665;SDS011;59128;44.642;21.188;2023-04-25T04:47:00;14.32;;;12.50;;
60665;SDS011;59128;44.642;21.188;2023-04-25T04:49:28;13.73;;;11.43;;
60665;SDS011;59128;44.642;21.188;2023-04-25T04:51:54;15.50;;;12.65;;
60665;SDS011;59128;44.642;21.188;2023-04-25T04:54:20;15.35;;;11.18;;
60665;SDS011;59128;44.642;21.188;2023-04-25T04:56:47;12.10;;;10.65;;
60665;SDS011;59128;44.642;21.188;2023-04-25T04:59:13;13.32;;;11.20;;
60665;SDS011;59128;44.642;21.188;2023-04-25T05:01:39;12.73;;;11.10;;
60665;SDS011;59128;44.642;21.188;2023-04-25T05:04:05;12.43;;;10.60;;
60665;SDS011;59128;44.642;21.188;2023-04-25T05:06:31;13.55;;;11.18;;
60665;SDS011;59128;44.642;21.188;2023-04-25T05:08:57;15.80;;;10.82;;
60665;SDS011;59128;44.642;21.188;2023-04-25T05:11:23;13.93;;;10.30;;
60665;SDS011;59128;44.642;21.188;2023-04-25T05:13:53;10.75;;;8.88;;
60665;SDS011;59128;44.642;21.188;2023-04-25T05:16:19;14.80;;;10.75;;
60665;SDS011;59128;44.642;21.188;2023-04-25T05:18:46;13.18;;;10.13;;
60665;SDS011;59128;44.642;21.188;2023-04-25T05:21:12;11.70;;;8.82;;
60665;SDS011;59128;44.642;21.188;2023-04-25T05:23:38;11.75;;;9.80;;
60665;SDS011;59128;44.642;21.188;2023-04-25T05:26:04;13.10;;;10.07;;
60665;SDS011;59128;44.642;21.188;2023-04-25T05:28:30;11.98;;;9.30;;
60665;SDS011;59128;44.642;21.188;2023-04-25T05:30:56;12.18;;;8.80;;
60665;SDS011;59128;44.642;21.188;2023-04-25T05:33:22;40.25;;;36.30;;
60665;SDS011;59128;44.642;21.188;2023-04-25T05:35:48;11.85;;;10.57;;
60665;SDS011;59128;44.642;21.188;2023-04-25T05:38:15;13.07;;;11.40;;
60665;SDS011;59128;44.642;21.188;2023-04-25T05:40:41;10.55;;;8.50;;
60665;SDS011;59128;44.642;21.188;2023-04-25T05:43:07;11.05;;;9.95;;
60665;SDS011;59128;44.642;21.188;2023-04-25T05:45:33;17.10;;;14.45;;
60665;SDS011;59128;44.642;21.188;2023-04-25T05:47:59;12.20;;;10.02;;
60665;SDS011;59128;44.642;21.188;2023-04-25T05:50:25;16.17;;;14.45;;
60665;SDS011;59128;44.642;21.188;2023-04-25T05:52:51;30.27;;;24.75;;
60665;SDS011;59128;44.642;21.188;2023-04-25T05:55:17;16.58;;;14.88;;
60665;SDS011;59128;44.642;21.188;2023-04-25T05:57:43;16.25;;;12.75;;
60665;SDS011;59128;44.642;21.188;2023-04-25T06:00:11;19.10;;;13.80;;
60665;SDS011;59128;44.642;21.188;2023-04-25T06:02:37;23.77;;;19.88;;
60665;SDS011;59128;44.642;21.188;2023-04-25T06:05:03;22.08;;;19.67;;
60665;SDS011;59128;44.642;21.188;2023-04-25T06:07:30;16.52;;;12.82;;
60665;SDS011;59128;44.642;21.188;2023-04-25T06:09:56;19.83;;;17.17;;
60665;SDS011;59128;44.642;21.188;2023-04-25T06:12:22;12.82;;;10.80;;
60665;SDS011;59128;44.642;21.188;2023-04-25T06:14:48;18.10;;;14.70;;
60665;SDS011;59128;44.642;21.188;2023-04-25T06:17:14;18.92;;;16.60;;
60665;SDS011;59128;44.642;21.188;2023-04-25T06:19:40;13.30;;;11.07;;
60665;SDS011;59128;44.642;21.188;2023-04-25T06:22:07;13.68;;;9.88;;
60665;SDS011;59128;44.642;21.188;2023-04-25T06:24:33;14.73;;;13.05;;
60665;SDS011;59128;44.642;21.188;2023-04-25T06:27:00;27.58;;;24.98;;
60665;SDS011;59128;44.642;21.188;2023-04-25T06:29:26;10.02;;;8.20;;
60665;SDS011;59128;44.642;21.188;2023-04-25T06:31:52;15.48;;;13.88;;
60665;SDS011;59128;44.642;21.188;2023-04-25T06:34:18;10.95;;;9.55;;
60665;SDS011;59128;44.642;21.188;2023-04-25T06:36:44;15.65;;;14.05;;
60665;SDS011;59128;44.642;21.188;2023-04-25T06:39:10;20.80;;;17.83;;
60665;SDS011;59128;44.642;21.188;2023-04-25T06:41:36;18.80;;;14.73;;
60665;SDS011;59128;44.642;21.188;2023-04-25T06:44:03;36.15;;;19.60;;
60665;SDS011;59128;44.642;21.188;2023-04-25T06:46:29;14.68;;;10.50;;
60665;SDS011;59128;44.642;21.188;2023-04-25T06:48:55;8.57;;;7.53;;
60665;SDS011;59128;44.642;21.188;2023-04-25T06:51:21;8.77;;;7.60;;
60665;SDS011;59128;44.642;21.188;2023-04-25T06:53:47;8.93;;;7.95;;
60665;SDS011;59128;44.642;21.188;2023-04-25T06:56:13;10.07;;;7.57;;
60665;SDS011;59128;44.642;21.188;2023-04-25T06:58:39;6.85;;;6.15;;
60665;SDS011;59128;44.642;21.188;2023-04-25T07:01:05;5.63;;;4.90;;
60665;SDS011;59128;44.642;21.188;2023-04-25T07:03:31;5.88;;;4.55;;
60665;SDS011;59128;44.642;21.188;2023-04-25T07:05:57;3.90;;;3.40;;
60665;SDS011;59128;44.642;21.188;2023-04-25T07:08:23;4.50;;;3.58;;
60665;SDS011;59128;44.642;21.188;2023-04-25T07:10:49;4.15;;;3.80;;
60665;SDS011;59128;44.642;21.188;2023-04-25T07:13:15;3.60;;;3.30;;
60665;SDS011;59128;44.642;21.188;2023-04-25T07:15:41;3.20;;;2.90;;
60665;SDS011;59128;44.642;21.188;2023-04-25T07:18:08;3.10;;;2.80;;
60665;SDS011;59128;44.642;21.188;2023-04-25T07:20:34;3.00;;;2.72;;
60665;SDS011;59128;44.642;21.188;2023-04-25T07:23:00;3.20;;;3.00;;
60665;SDS011;59128;44.642;21.188;2023-04-25T07:25:26;4.28;;;2.92;;
60665;SDS011;59128;44.642;21.188;2023-04-25T07:27:52;3.88;;;3.00;;
60665;SDS011;59128;44.642;21.188;2023-04-25T07:30:18;3.97;;;3.50;;
60665;SDS011;59128;44.642;21.188;2023-04-25T07:32:44;5.18;;;4.78;;
60665;SDS011;59128;44.642;21.188;2023-04-25T07:35:10;7.30;;;6.60;;
60665;SDS011;59128;44.642;21.188;2023-04-25T07:37:36;6.95;;;6.25;;
60665;SDS011;59128;44.642;21.188;2023-04-25T07:40:03;7.05;;;6.30;;
60665;SDS011;59128;44.642;21.188;2023-04-25T07:42:29;7.28;;;6.68;;
60665;SDS011;59128;44.642;21.188;2023-04-25T07:44:56;8.05;;;6.20;;
60665;SDS011;59128;44.642;21.188;2023-04-25T07:47:22;6.55;;;5.95;;
60665;SDS011;59128;44.642;21.188;2023-04-25T07:49:48;7.13;;;6.43;;
60665;SDS011;59128;44.642;21.188;2023-04-25T07:52:14;7.35;;;6.65;;
60665;SDS011;59128;44.642;21.188;2023-04-25T07:54:40;8.45;;;6.85;;
60665;SDS011;59128;44.642;21.188;2023-04-25T07:57:06;7.57;;;6.88;;
60665;SDS011;59128;44.642;21.188;2023-04-25T07:59:32;6.72;;;6.15;;
60665;SDS011;59128;44.642;21.188;2023-04-25T08:01:59;7.57;;;6.55;;
60665;SDS011;59128;44.642;21.188;2023-04-25T08:04:26;6.95;;;6.32;;
60665;SDS011;59128;44.642;21.188;2023-04-25T08:06:52;6.13;;;5.57;;
60665;SDS011;59128;44.642;21.188;2023-04-25T08:09:19;6.20;;;5.60;;
60665;SDS011;59128;44.642;21.188;2023-04-25T08:11:45;5.88;;;5.32;;
60665;SDS011;59128;44.642;21.188;2023-04-25T08:14:12;7.40;;;5.05;;
60665;SDS011;59128;44.642;21.188;2023-04-25T08:16:38;6.30;;;5.70;;
60665;SDS011;59128;44.642;21.188;2023-04-25T08:19:04;6.28;;;5.68;;
60665;SDS011;59128;44.642;21.188;2023-04-25T08:21:30;7.38;;;5.35;;
60665;SDS011;59128;44.642;21.188;2023-04-25T08:23:57;6.60;;;6.00;;
60665;SDS011;59128;44.642;21.188;2023-04-25T08:26:24;7.35;;;6.13;;
60665;SDS011;59128;44.642;21.188;2023-04-25T08:28:50;8.70;;;7.13;;
60665;SDS011;59128;44.642;21.188;2023-04-25T08:31:16;9.15;;;6.50;;
60665;SDS011;59128;44.642;21.188;2023-04-25T08:33:43;8.43;;;7.38;;
60665;SDS011;59128;44.642;21.188;2023-04-25T08:36:10;11.23;;;7.72;;
60665;SDS011;59128;44.642;21.188;2023-04-25T08:38:36;8.70;;;6.38;;
60665;SDS011;59128;44.642;21.188;2023-04-25T08:41:02;6.32;;;5.72;;
60665;SDS011;59128;44.642;21.188;2023-04-25T08:43:29;6.53;;;5.85;;
60665;SDS011;59128;44.642;21.188;2023-04-25T08:45:58;5.45;;;4.95;;
60665;SDS011;59128;44.642;21.188;2023-04-25T08:48:25;4.75;;;4.22;;
60665;SDS011;59128;44.642;21.188;2023-04-25T08:50:54;4.75;;;4.35;;
60665;SDS011;59128;44.642;21.188;2023-04-25T08:53:27;5.18;;;4.13;;
60665;SDS011;59128;44.642;21.188;2023-04-25T08:55:54;4.40;;;4.00;;
60665;SDS011;59128;44.642;21.188;2023-04-25T08:58:21;4.25;;;3.85;;
60665;SDS011;59128;44.642;21.188;2023-04-25T09:00:48;4.53;;;4.10;;
60665;SDS011;59128;44.642;21.188;2023-04-25T09:03:14;3.88;;;3.58;;
60665;SDS011;59128;44.642;21.188;2023-04-25T09:05:41;6.72;;;3.78;;
60665;SDS011;59128;44.642;21.188;2023-04-25T09:08:07;4.18;;;3.63;;
60665;SDS011;59128;44.642;21.188;2023-04-25T09:10:33;4.35;;;3.78;;
60665;SDS011;59128;44.642;21.188;2023-04-25T09:13:05;4.45;;;3.47;;
60665;SDS011;59128;44.642;21.188;2023-04-25T09:15:31;3.83;;;3.40;;
60665;SDS011;59128;44.642;21.188;2023-04-25T09:17:58;11.18;;;3.55;;
60665;SDS011;59128;44.642;21.188;2023-04-25T09:20:24;4.80;;;3.20;;
60665;SDS011;59128;44.642;21.188;2023-04-25T09:23:03;5.13;;;3.60;;
60665;SDS011;59128;44.642;21.188;2023-04-25T09:25:33;5.10;;;4.60;;
60665;SDS011;59128;44.642;21.188;2023-04-25T09:28:03;4.50;;;3.83;;
60665;SDS011;59128;44.642;21.188;2023-04-25T09:30:30;3.55;;;3.25;;
60665;SDS011;59128;44.642;21.188;2023-04-25T09:32:57;4.13;;;3.72;;
60665;SDS011;59128;44.642;21.188;2023-04-25T09:35:24;3.50;;;3.20;;
60665;SDS011;59128;44.642;21.188;2023-04-25T09:37:51;3.83;;;3.45;;
60665;SDS011;59128;44.642;21.188;2023-04-25T09:40:17;3.67;;;3.38;;
60665;SDS011;59128;44.642;21.188;2023-04-25T09:42:43;4.55;;;3.10;;
60665;SDS011;59128;44.642;21.188;2023-04-25T09:45:11;3.22;;;3.03;;
60665;SDS011;59128;44.642;21.188;2023-04-25T09:47:41;3.67;;;3.30;;
60665;SDS011;59128;44.642;21.188;2023-04-25T09:50:15;3.90;;;3.58;;
60665;SDS011;59128;44.642;21.188;2023-04-25T09:52:41;3.92;;;3.63;;
60665;SDS011;59128;44.642;21.188;2023-04-25T09:55:08;4.32;;;3.83;;
60665;SDS011;59128;44.642;21.188;2023-04-25T09:57:34;3.70;;;3.40;;
60665;SDS011;59128;44.642;21.188;2023-04-25T10:00:04;5.90;;;3.13;;
60665;SDS011;59128;44.642;21.188;2023-04-25T10:02:34;3.30;;;3.00;;
60665;SDS011;59128;44.642;21.188;2023-04-25T10:05:01;3.38;;;3.10;;
60665;SDS011;59128;44.642;21.188;2023-04-25T10:07:29;3.60;;;3.13;;
60665;SDS011;59128;44.642;21.188;2023-04-25T10:09:59;5.03;;;3.03;;
60665;SDS011;59128;44.642;21.188;2023-04-25T10:12:27;5.45;;;3.63;;
60665;SDS011;59128;44.642;21.188;2023-04-25T10:14:54;3.90;;;3.60;;
60665;SDS011;59128;44.642;21.188;2023-04-25T10:17:20;4.30;;;3.22;;
60665;SDS011;59128;44.642;21.188;2023-04-25T10:19:49;3.50;;;3.20;;
60665;SDS011;59128;44.642;21.188;2023-04-25T10:24:42;3.70;;;3.00;;
60665;SDS011;59128;44.642;21.188;2023-04-25T10:27:09;3.60;;;3.30;;
60665;SDS011;59128;44.642;21.188;2023-04-25T10:29:35;3.03;;;2.38;;
60665;SDS011;59128;44.642;21.188;2023-04-25T10:32:01;3.55;;;2.50;;
60665;SDS011;59128;44.642;21.188;2023-04-25T10:34:43;3.42;;;2.17;;
60665;SDS011;59128;44.642;21.188;2023-04-25T10:37:12;2.30;;;1.90;;
60665;SDS011;59128;44.642;21.188;2023-04-25T10:39:41;2.17;;;1.98;;
60665;SDS011;59128;44.642;21.188;2023-04-25T10:42:08;2.92;;;1.60;;
60665;SDS011;59128;44.642;21.188;2023-04-25T10:44:35;3.92;;;1.70;;
60665;SDS011;59128;44.642;21.188;2023-04-25T10:47:02;2.47;;;1.77;;
60665;SDS011;59128;44.642;21.188;2023-04-25T10:52:18;2.75;;;2.47;;
60665;SDS011;59128;44.642;21.188;2023-04-25T10:54:53;3.97;;;2.55;;
60665;SDS011;59128;44.642;21.188;2023-04-25T10:59:57;3.08;;;2.15;;
60665;SDS011;59128;44.642;21.188;2023-04-25T11:02:25;2.50;;;2.30;;
60665;SDS011;59128;44.642;21.188;2023-04-25T11:04:52;4.68;;;2.80;;
60665;SDS011;59128;44.642;21.188;2023-04-25T11:09:48;4.13;;;2.65;;
60665;SDS011;59128;44.642;21.188;2023-04-25T11:12:15;3.72;;;2.85;;
60665;SDS011;59128;44.642;21.188;2023-04-25T11:14:42;5.22;;;3.30;;
60665;SDS011;59128;44.642;21.188;2023-04-25T11:17:08;2.80;;;2.50;;
60665;SDS011;59128;44.642;21.188;2023-04-25T11:19:36;4.30;;;2.90;;
60665;SDS011;59128;44.642;21.188;2023-04-25T11:22:02;4.13;;;2.80;;
60665;SDS011;59128;44.642;21.188;2023-04-25T11:24:29;2.83;;;2.55;;
60665;SDS011;59128;44.642;21.188;2023-04-25T11:26:56;4.32;;;2.80;;
60665;SDS011;59128;44.642;21.188;2023-04-25T11:29:23;3.72;;;2.72;;
60665;SDS011;59128;44.642;21.188;2023-04-25T11:31:52;3.65;;;2.78;;
60665;SDS011;59128;44.642;21.188;2023-04-25T11:34:18;4.82;;;3.42;;
60665;SDS011;59128;44.642;21.188;2023-04-25T11:36:45;3.20;;;2.90;;
60665;SDS011;59128;44.642;21.188;2023-04-25T11:39:11;2.85;;;2.65;;
60665;SDS011;59128;44.642;21.188;2023-04-25T11:41:38;4.35;;;3.17;;
60665;SDS011;59128;44.642;21.188;2023-04-25T11:44:04;3.65;;;2.85;;
60665;SDS011;59128;44.642;21.188;2023-04-25T11:46:33;4.70;;;3.00;;
60665;SDS011;59128;44.642;21.188;2023-04-25T11:49:01;5.25;;;2.80;;
60665;SDS011;59128;44.642;21.188;2023-04-25T11:51:27;2.47;;;2.28;;
60665;SDS011;59128;44.642;21.188;2023-04-25T11:53:53;3.50;;;2.75;;
60665;SDS011;59128;44.642;21.188;2023-04-25T11:56:20;3.10;;;2.50;;
60665;SDS011;59128;44.642;21.188;2023-04-25T11:58:59;3.78;;;2.90;;
60665;SDS011;59128;44.642;21.188;2023-04-25T12:01:35;5.93;;;2.78;;
60665;SDS011;59128;44.642;21.188;2023-04-25T12:04:12;3.08;;;2.75;;
60665;SDS011;59128;44.642;21.188;2023-04-25T12:06:39;3.42;;;2.65;;
60665;SDS011;59128;44.642;21.188;2023-04-25T12:09:09;3.10;;;2.83;;
60665;SDS011;59128;44.642;21.188;2023-04-25T12:11:45;2.97;;;2.47;;
60665;SDS011;59128;44.642;21.188;2023-04-25T12:14:12;3.60;;;2.60;;
60665;SDS011;59128;44.642;21.188;2023-04-25T12:16:41;3.35;;;2.80;;
60665;SDS011;59128;44.642;21.188;2023-04-25T12:19:07;5.00;;;3.15;;
60665;SDS011;59128;44.642;21.188;2023-04-25T12:21:34;3.35;;;2.40;;
60665;SDS011;59128;44.642;21.188;2023-04-25T12:24:22;2.92;;;2.65;;
60665;SDS011;59128;44.642;21.188;2023-04-25T12:26:49;6.55;;;2.80;;
60665;SDS011;59128;44.642;21.188;2023-04-25T12:29:22;3.90;;;2.50;;
60665;SDS011;59128;44.642;21.188;2023-04-25T12:31:49;6.30;;;3.45;;
60665;SDS011;59128;44.642;21.188;2023-04-25T12:34:16;3.97;;;2.45;;
60665;SDS011;59128;44.642;21.188;2023-04-25T12:36:42;1.98;;;1.77;;
60665;SDS011;59128;44.642;21.188;2023-04-25T12:39:08;4.75;;;1.95;;
60665;SDS011;59128;44.642;21.188;2023-04-25T12:41:40;2.03;;;1.85;;
60665;SDS011;59128;44.642;21.188;2023-04-25T12:44:06;2.22;;;1.90;;
60665;SDS011;59128;44.642;21.188;2023-04-25T12:46:32;1.95;;;1.75;;
60665;SDS011;59128;44.642;21.188;2023-04-25T12:48:58;2.53;;;2.33;;
60665;SDS011;59128;44.642;21.188;2023-04-25T12:51:25;2.47;;;2.28;;
60665;SDS011;59128;44.642;21.188;2023-04-25T12:53:52;2.80;;;2.45;;
60665;SDS011;59128;44.642;21.188;2023-04-25T12:56:19;2.15;;;2.00;;
60665;SDS011;59128;44.642;21.188;2023-04-25T12:58:45;2.58;;;2.00;;
60665;SDS011;59128;44.642;21.188;2023-04-25T13:01:13;3.60;;;2.40;;
60665;SDS011;59128;44.642;21.188;2023-04-25T13:03:39;5.45;;;2.42;;
60665;SDS011;59128;44.642;21.188;2023-04-25T13:06:08;3.05;;;2.70;;
60665;SDS011;59128;44.642;21.188;2023-04-25T13:08:34;2.90;;;2.65;;
60665;SDS011;59128;44.642;21.188;2023-04-25T13:11:01;2.63;;;2.03;;
60665;SDS011;59128;44.642;21.188;2023-04-25T13:13:28;2.95;;;2.22;;
60665;SDS011;59128;44.642;21.188;2023-04-25T13:15:54;3.72;;;2.45;;
60665;SDS011;59128;44.642;21.188;2023-04-25T13:18:20;2.50;;;2.20;;
60665;SDS011;59128;44.642;21.188;2023-04-25T13:20:51;2.65;;;2.08;;
60665;SDS011;59128;44.642;21.188;2023-04-25T13:23:17;3.40;;;2.22;;
60665;SDS011;59128;44.642;21.188;2023-04-25T13:25:43;3.28;;;2.10;;
60665;SDS011;59128;44.642;21.188;2023-04-25T13:28:09;5.10;;;1.70;;
60665;SDS011;59128;44.642;21.188;2023-04-25T13:30:35;1.77;;;1.67;;
60665;SDS011;59128;44.642;21.188;2023-04-25T13:33:02;2.00;;;1.88;;
60665;SDS011;59128;44.642;21.188;2023-04-25T13:35:29;1.98;;;1.67;;
60665;SDS011;59128;44.642;21.188;2023-04-25T13:37:55;1.55;;;1.40;;
60665;SDS011;59128;44.642;21.188;2023-04-25T13:40:21;1.92;;;1.60;;
60665;SDS011;59128;44.642;21.188;2023-04-25T13:42:48;1.80;;;1.70;;
60665;SDS011;59128;44.642;21.188;2023-04-25T13:45:14;3.78;;;2.10;;
60665;SDS011;59128;44.642;21.188;2023-04-25T13:47:40;3.10;;;1.75;;
60665;SDS011;59128;44.642;21.188;2023-04-25T13:50:06;2.20;;;2.00;;
60665;SDS011;59128;44.642;21.188;2023-04-25T13:52:32;2.70;;;1.95;;
60665;SDS011;59128;44.642;21.188;2023-04-25T13:54:58;3.30;;;2.03;;
60665;SDS011;59128;44.642;21.188;2023-04-25T13:57:25;2.60;;;1.98;;
60665;SDS011;59128;44.642;21.188;2023-04-25T13:59:51;4.45;;;2.47;;
60665;SDS011;59128;44.642;21.188;2023-04-25T14:02:18;3.88;;;2.53;;
60665;SDS011;59128;44.642;21.188;2023-04-25T14:04:44;2.20;;;2.00;;
60665;SDS011;59128;44.642;21.188;2023-04-25T14:07:10;2.30;;;1.92;;
60665;SDS011;59128;44.642;21.188;2023-04-25T14:09:36;2.67;;;2.10;;
60665;SDS011;59128;44.642;21.188;2023-04-25T14:12:02;2.55;;;1.98;;
60665;SDS011;59128;44.642;21.188;2023-04-25T14:14:28;3.38;;;1.90;;
60665;SDS011;59128;44.642;21.188;2023-04-25T14:16:55;2.00;;;1.85;;
60665;SDS011;59128;44.642;21.188;2023-04-25T14:19:22;3.67;;;2.30;;
60665;SDS011;59128;44.642;21.188;2023-04-25T14:21:48;3.15;;;1.95;;
60665;SDS011;59128;44.642;21.188;2023-04-25T14:24:14;2.22;;;2.05;;
60665;SDS011;59128;44.642;21.188;2023-04-25T14:26:41;4.97;;;2.25;;
60665;SDS011;59128;44.642;21.188;2023-04-25T14:29:07;3.50;;;2.50;;
60665;SDS011;59128;44.642;21.188;2023-04-25T14:31:34;3.25;;;2.08;;